Flight Track Log - Related Links

Times and Time Zones

All times are in EDT time to prevent confusion due to time zone crossing. See the BJS542 flight status page for this flight to view local times or setup timezone preferences in your user account.

Time Position Orientation Groundspeed Altitude Reporting Facility
EDT Latitude Longitude Course Direction KTS MPH feet Rate Location/Type
Mon 08:07:11 AM 43.7167 -79.4333 234° Southwest 160 184 1,600  Level Toronto Center
Mon 08:08:11 AM 43.7667 -79.4000 26° Northeast 230 265 1,500 -50 Descending Toronto Center
Mon 08:09:11 AM 43.8000 -79.4667 305° West 200 230 1,500 1,300 Level Toronto Center
Mon 08:10:11 AM 43.8500 -79.5167 324° Northwest 220 253 4,100 3,400 Climbing Toronto Center
Mon 08:11:11 AM 43.9000 -79.5833 316° Northwest 260 299 8,300 4,000 Climbing Toronto Center
Mon 08:12:00 AM 43.1942 -80.0108 234° Southwest  Level FlightAware
Mon 08:12:11 AM 43.8667 -79.7000 248° West 290 334 12,100  Level Toronto Center
Mon 08:13:11 AM 43.8000 -79.7667 216° Southwest 310 357 15,300 3,000 Climbing Toronto Center
Mon 08:14:11 AM 43.7167 -79.8667 221° Southwest 350 403 18,100 2,900 Climbing Toronto Center
Mon 08:15:11 AM 43.6333 -79.9500 216° Southwest 370 426 21,100 2,550 Climbing Toronto Center
Mon 08:16:11 AM 43.5500 -80.0167 210° Southwest 390 449 23,200 2,100 Climbing Toronto Center
Mon 08:17:11 AM 43.4500 -80.1333 220° Southwest 420 483 25,300 2,000 Climbing Toronto Center
Mon 08:18:11 AM 43.3500 -80.2333 216° Southwest 440 506 27,200 2,000 Climbing Toronto Center
Mon 08:19:11 AM 43.2500 -80.3500 220° Southwest 450 518 29,300 2,000 Climbing Toronto Center
Mon 08:20:11 AM 43.1500 -80.4333 211° Southwest 460 529 31,200 2,000 Climbing Toronto Center
Mon 08:21:11 AM 43.0500 -80.5500 220° Southwest 460 529 33,300 2,050 Climbing Toronto Center
Mon 08:22:11 AM 42.9500 -80.6333 211° Southwest 460 529 35,300 1,878 Climbing Toronto Center
Mon 08:23:06 AM 42.8644 -80.7306 220° Southwest 467 537 36,900 1,826 Climbing Cleveland Center
Mon 08:24:06 AM 42.7642 -80.8319 217° Southwest 454 522 38,800 1,450 Climbing Cleveland Center
Mon 08:25:06 AM 42.6661 -80.9247 215° Southwest 449 517 39,800 600 Climbing Cleveland Center
Mon 08:26:06 AM 42.5656 -81.0258 217° Southwest 449 517 40,000 100 Climbing Cleveland Center
Mon 08:27:06 AM 42.4653 -81.1208 215° Southwest 449 517 40,000 -300 Level Cleveland Center
Mon 08:28:06 AM 42.3647 -81.2183 216° Southwest 449 517 39,400 -800 Descending Cleveland Center
Mon 08:29:06 AM 42.2639 -81.3156 216° Southwest 454 522 38,400 -700 Descending Cleveland Center
Mon 08:30:06 AM 42.1550 -81.4178 215° Southwest 447 514 38,000 -400 Descending Cleveland Center
Mon 08:31:06 AM 42.0519 -81.5172 216° Southwest 452 520 37,600  Descending Cleveland Center
Mon 08:32:06 AM 41.9492 -81.6106 214° Southwest 452 520 38,000 200 Climbing Cleveland Center
Mon 08:33:06 AM 41.8461 -81.7092 215° Southwest 457 526 38,000  Level Cleveland Center
Mon 08:34:06 AM 41.7697 -81.8386 232° Southwest 443 510 38,000  Level Cleveland Center
Mon 08:35:06 AM 41.7094 -81.9878 242° Southwest 449 517 38,000  Level Cleveland Center
Mon 08:36:06 AM 41.6472 -82.1364 241° Southwest 459 528 38,000  Level Cleveland Center
Mon 08:37:06 AM 41.5889 -82.2822 242° Southwest 454 522 38,000  Level Cleveland Center
Mon 08:38:06 AM 41.5283 -82.4250 241° Southwest 454 522 38,000  Level Cleveland Center
Mon 08:39:06 AM 41.4675 -82.5728 241° Southwest 454 522 38,000  Level Cleveland Center
Mon 08:40:06 AM 41.4064 -82.7175 241° Southwest 454 522 38,000  Level Cleveland Center
Mon 08:41:06 AM 41.3472 -82.8594 241° Southwest 449 517 38,000 -450 Level Cleveland Center
Mon 08:42:06 AM 41.2881 -83.0011 241° Southwest 454 522 37,100 -1,000 Descending Cleveland Center
Mon 08:43:06 AM 41.2267 -83.1425 240° Southwest 454 522 36,000 -1,405 Descending Cleveland Center
Mon 08:45:31 AM 41.0817 -83.4861 241° Southwest 461 531 32,300 -1,159 Descending Indianapolis Center
Mon 08:46:33 AM 41.0197 -83.6289 240° Southwest 474 545 32,000 -290 Descending Indianapolis Center
Mon 08:47:35 AM 40.9436 -83.8036 240° Southwest 469 540 31,700 -968 Descending Indianapolis Center
Mon 08:48:37 AM 40.8792 -83.9522 240° Southwest 466 536 30,000 -1,659 Descending Indianapolis Center
Mon 08:49:38 AM 40.8133 -84.1036 240° Southwest 471 542 28,300 -976 Descending Indianapolis Center
Mon 08:50:40 AM 40.7494 -84.2500 240° Southwest 462 532 28,000 -145 Descending Indianapolis Center
Mon 08:51:42 AM 40.6850 -84.3950 240° Southwest 456 525 28,000  Level Indianapolis Center
Mon 08:52:44 AM 40.6200 -84.5425 240° Southwest 462 532 28,000 -1,210 Level Indianapolis Center
Mon 08:53:46 AM 40.5472 -84.7072 240° Southwest 445 512 25,500 -1,951 Descending Indianapolis Center
Mon 08:54:47 AM 40.4861 -84.8419 239° Southwest 430 495 24,000 -829 Descending Indianapolis Center
Mon 08:55:49 AM 40.4336 -84.9575 239° Southwest 430 495 23,800 -1,452 Descending Indianapolis Center
Mon 08:56:51 AM 40.3608 -85.1206 240° Southwest 434 499 21,000 -2,516 Descending Indianapolis Center
Mon 08:57:53 AM 40.3017 -85.2528 240° Southwest 426 490 18,600 -2,098 Descending Indianapolis Center
Mon 08:58:54 AM 40.2447 -85.3767 239° Southwest 403 464 16,700 -1,902 Descending Indianapolis Center
Mon 08:59:56 AM 40.1953 -85.4928 241° Southwest 372 428 14,700 -1,935 Descending Indianapolis Center
Mon 09:00:58 AM 40.1442 -85.6125 241° Southwest 378 435 12,700 -1,790 Descending Indianapolis Center
Mon 09:02:00 AM 40.0933 -85.7292 240° Southwest 372 428 11,000 -968 Descending Indianapolis Center
Mon 09:03:02 AM 40.0358 -85.8614 240° Southwest 353 406 10,700 -732 Descending Indianapolis Center
Mon 09:04:03 AM 39.9953 -85.9553 241° Southwest 302 348 9,500 -1,171 Descending Indianapolis Center
Mon 09:05:05 AM 39.9561 -86.0436 240° Southwest 283 326 8,300 -1,161 Descending Indianapolis Center
Mon 09:06:07 AM 39.9181 -86.1308 240° Southwest 280 322 7,100 -634 Descending Indianapolis Center
Mon 09:07:08 AM 39.8789 -86.2203 240° Southwest 286 329 7,000 -49 Descending Indianapolis Center
Mon 09:08:10 AM 39.8239 -86.3139 233° Southwest 276 318 7,000 -581 Level Indianapolis Center
Mon 09:09:12 AM 39.7714 -86.3792 224° Southwest 271 312 5,800 -1,210 Descending Indianapolis Center
Mon 09:10:14 AM 39.7183 -86.4469 225° Southwest 273 314 4,500 -1,024 Descending Indianapolis Center
Mon 09:11:15 AM 39.6678 -86.4958 217° Southwest 254 292 3,700 -732 Descending Indianapolis Center
Mon 09:12:17 AM 39.6294 -86.4414 132° Southeast 223 257 3,000 -774 Descending Indianapolis Center
Mon 09:13:19 AM 39.6544 -86.3625 68° East 201 231 2,100 -823 Descending Indianapolis Center
Mon 09:14:21 AM 39.6831 -86.3264 44° Northeast 152 175 1,300 -629 Descending Indianapolis Center
Mon 09:15:23 AM 39.7125 -86.2897 44° Northeast 143 165 800 -484 Descending Indianapolis Center

Login

Don't have an account? Register now (free) for customized features, flight alerts, and more!